This is the latest recevied weather packets stored in our database for station/object WB5RFA. If no packets are shown the sender has not sent any weather packets the latest 1 day(s).
| Time | Temp. | Humidity | Pressure | Rain* | Wind** | Luminosity | Snow |
|---|---|---|---|---|---|---|---|
| 1778110871 | 15.56° C | 36% | 1016 hPa | 0 mm | - | - | - |
| 1778108473 | 15.56° C | 35% | 1016 hPa | 0 mm | - | - | - |
| 1778107511 | 15.56° C | 35% | 1015.9 hPa | 0 mm | - | - | - |
| 1778106553 | 16.11° C | 34% | 1016 hPa | 0 mm | - | - | - |
| 1778106071 | 16.11° C | 36% | 1016 hPa | 0 mm | - | - | - |
| 1778105592 | 16.11° C | 34% | 1016.1 hPa | 0 mm | - | - | - |
| 1778102711 | 16.11° C | 37% | 1016.5 hPa | 0 mm | - | - | - |
| 1778099832 | 15.56° C | 36% | 1016.9 hPa | 0 mm | - | - | - |
| 1778097912 | 15° C | 36% | 1017.3 hPa | 0 mm | - | - | - |
| 1778096472 | 15° C | 36% | 1017.6 hPa | 0 mm | - | - | - |
| 1778095993 | 15° C | 36% | 1017.6 hPa | 0 mm | - | - | - |
| 1778093592 | 15° C | 36% | 1017.7 hPa | 0 mm | - | - | - |
| 1778091673 | 13.89° C | 42% | 1018 hPa | 0 mm | - | - | - |
| 1778091192 | 13.33° C | 38% | 1018.3 hPa | 0 mm | - | - | - |
| 1778089753 | 13.33° C | 41% | 1018.4 hPa | 0 mm | - | - | - |
| 1778088313 | 13.89° C | 39% | 1018.4 hPa | 0 mm | - | - | - |
| 1778083993 | 13.33° C | 46% | 1018.2 hPa | 0 mm | - | - | - |
| 1778083512 | 12.78° C | 41% | 1018.2 hPa | 0 mm | - | - | - |
| 1778083031 | 13.33° C | 43% | 1018.1 hPa | 0 mm | - | - | - |
| 1778081112 | 13.33° C | 44% | 1017.7 hPa | 0 mm | - | - | - |
| 1778079671 | 12.22° C | 51% | 1017.8 hPa | 0 mm | - | - | - |
| 1778075831 | 11.11° C | 62% | 1017.4 hPa | 0 mm | - | - | - |
| 1778074872 | 10° C | 61% | 1017.2 hPa | 0 mm | - | - | - |
| 1778074392 | 10° C | 65% | 1017.2 hPa | 0 mm | - | - | - |
| 1778071513 | 8.33° C | 83% | 1016.6 hPa | 0 mm | - | - | - |
* Rain latest hour (hover to see other rain measurements)
** Current wind speed in m/s (hover to see current wind gust speed)